Time;durP1;ratioP1;P1;durP2;ratioP2;P2;SDS_P1;SDS_P2;PMS_P1;PMS_P2;Temp;Humidity;BMP_temperature;BMP_pressure;BME280_temperature;BME280_humidity;BME280_pressure;Samples;Min_cycle;Max_cycle;Signal;HPM_P1;HPM_P2
2022/08/22 00:02:22;;;;;;;;;;;;;;;16.16;56.88;99912.66;5061726;28;989;-55
2022/08/22 00:04:50;;;;;;;;;;;;;;;16.18;56.98;99908.50;5051365;28;1910;-56
2022/08/22 00:07:16;;;;;;;;;;;;;;;16.79;57.68;99905.28;5069997;28;989;-56
2022/08/22 00:09:43;;;;;;;;;;;;;;;17.35;58.25;99911.88;5061878;28;978;-56
2022/08/22 00:12:21;;;;;;;;;;;;;;;16.82;58.95;99910.19;5057775;28;1084;-56
2022/08/22 00:14:53;;;;;;;;;;;;;;;16.66;58.33;99904.94;5053805;28;2388;-56
2022/08/22 00:17:45;;;;;;;;;;;;;;;16.60;58.08;99897.84;5051444;28;993;-56
2022/08/22 00:20:14;;;;;;;;;;;;;;;16.56;57.78;99902.28;5029996;28;1146;-56
2022/08/22 00:22:54;;;;;;;;;;;;;;;16.53;57.40;99900.16;5070955;28;1071;-56
2022/08/22 00:25:29;;;;;;;;;;;;;;;16.48;57.41;99905.69;5049084;28;1898;-56
2022/08/22 00:28:15;;;;;;;;;;;;;;;16.43;57.30;99898.34;5070457;28;1028;-56
2022/08/22 00:30:43;;;;;;;;;;;;;;;16.40;57.30;99897.00;5017610;28;1178;-55
2022/08/22 00:33:21;;;;;;;;;;;;;;;16.37;57.39;99894.84;5074069;28;1063;-56
2022/08/22 00:35:47;;;;;;;;;;;;;;;16.39;57.30;99898.09;5045558;28;1144;-56
2022/08/22 00:38:13;;;;;;;;;;;;;;;16.37;57.25;99894.84;5058906;28;1001;-56
2022/08/22 00:40:47;;;;;;;;;;;;;;;16.33;57.15;99893.00;5074520;28;1139;-56
2022/08/22 00:43:15;;;;;;;;;;;;;;;16.32;57.10;99889.44;5069357;28;1033;-55
2022/08/22 00:45:53;;;;;;;;;;;;;;;16.33;56.96;99904.78;5061581;28;1905;-55
2022/08/22 00:48:39;;;;;;;;;;;;;;;16.30;57.16;99902.63;5062339;28;1100;-55
2022/08/22 00:51:07;;;;;;;;;;;;;;;16.24;57.04;99903.78;5039370;28;1370;-55
2022/08/22 00:53:36;;;;;;;;;;;;;;;16.25;56.99;99897.19;5076563;28;1036;-55
2022/08/22 00:56:05;;;;;;;;;;;;;;;16.24;56.94;99906.53;5065462;28;1204;-55
2022/08/22 00:59:00;;;;;;;;;;;;;;;16.21;56.77;99905.19;5047769;28;1052;-56
2022/08/22 01:01:30;;;;;;;;;;;;;;;16.21;56.74;99902.44;5041027;28;1106;-55
2022/08/22 01:04:04;;;;;;;;;;;;;;;16.98;58.08;99897.88;5053858;28;950;-56
2022/08/22 01:06:43;;;;;;;;;;;;;;;17.21;58.66;99900.88;5052240;28;1980;-56
2022/08/22 01:09:08;;;;;;;;;;;;;;;16.82;58.90;99896.47;5069138;28;867;-56
2022/08/22 01:11:52;;;;;;;;;;;;;;;16.72;58.37;99902.94;5072567;28;1107;-55
2022/08/22 01:14:36;;;;;;;;;;;;;;;16.58;58.05;99897.34;5066812;28;1071;-55
2022/08/22 01:17:08;;;;;;;;;;;;;;;16.51;57.95;99899.59;5062368;28;1116;-54
2022/08/22 01:19:36;;;;;;;;;;;;;;;16.49;57.81;99899.91;5070281;28;1068;-54
2022/08/22 01:22:05;;;;;;;;;;;;;;;16.50;57.59;99900.75;5064807;28;1030;-54
2022/08/22 01:27:42;;;;;;;;;;;;;;;16.43;57.22;99910.13;5029945;28;1036;-57
2022/08/22 01:30:17;;;;;;;;;;;;;;;16.37;57.07;99897.59;5048928;28;1053;-56
2022/08/22 01:32:57;;;;;;;;;;;;;;;16.43;57.13;99896.41;5063098;28;915;-56
2022/08/22 01:35:38;;;;;;;;;;;;;;;16.35;56.90;99905.28;5051417;28;1085;-56
2022/08/22 01:38:22;;;;;;;;;;;;;;;16.38;56.81;99898.41;5075566;28;1016;-56
2022/08/22 01:40:51;;;;;;;;;;;;;;;16.37;56.92;99910.50;5057431;28;1135;-56
2022/08/22 01:43:31;;;;;;;;;;;;;;;16.32;56.95;99903.13;5061510;28;1057;-56
2022/08/22 01:46:06;;;;;;;;;;;;;;;16.28;56.90;99896.59;5063481;28;1978;-56
2022/08/22 01:48:40;;;;;;;;;;;;;;;16.25;56.92;99895.25;5075285;28;977;-56
2022/08/22 01:51:24;;;;;;;;;;;;;;;16.22;56.96;99900.53;5055953;28;1120;-56
2022/08/22 01:53:50;;;;;;;;;;;;;;;16.23;56.87;99891.19;5067843;28;977;-56
2022/08/22 01:56:16;;;;;;;;;;;;;;;16.23;56.81;99896.69;5070013;28;1060;-56
2022/08/22 01:58:42;;;;;;;;;;;;;;;16.99;57.80;99888.53;5050392;28;1134;-57
2022/08/22 02:01:27;;;;;;;;;;;;;;;17.17;58.33;99894.34;5051414;28;974;-59
2022/08/22 02:03:52;;;;;;;;;;;;;;;16.76;58.48;99896.53;5071586;28;1005;-57
2022/08/22 02:06:38;;;;;;;;;;;;;;;16.63;58.13;99897.25;5071662;28;1913;-56
2022/08/22 02:09:05;;;;;;;;;;;;;;;16.56;58.03;99894.06;5064905;28;1135;-56
2022/08/22 02:11:45;;;;;;;;;;;;;;;16.53;57.77;99891.91;5043902;28;1127;-57
2022/08/22 02:14:31;;;;;;;;;;;;;;;16.48;57.53;99890.06;5047639;28;981;-56
2022/08/22 02:17:12;;;;;;;;;;;;;;;16.47;57.28;99896.66;5063031;28;2591;-56
2022/08/22 02:19:39;;;;;;;;;;;;;;;16.41;57.48;99889.59;5044894;28;1013;-56
2022/08/22 02:22:05;;;;;;;;;;;;;;;16.37;57.24;99892.13;5047347;28;1125;-55
2022/08/22 02:24:40;;;;;;;;;;;;;;;16.36;57.08;99895.16;5071166;28;1049;-55
2022/08/22 02:27:06;;;;;;;;;;;;;;;16.35;57.05;99907.22;5054046;28;1144;-55
2022/08/22 02:29:38;;;;;;;;;;;;;;;16.28;57.24;99907.59;5072989;28;878;-55
2022/08/22 02:32:25;;;;;;;;;;;;;;;16.31;56.82;99898.75;5052299;28;1183;-55
2022/08/22 02:35:14;;;;;;;;;;;;;;;16.28;57.00;99899.34;5037385;28;1017;-55
2022/08/22 02:37:42;;;;;;;;;;;;;;;16.28;56.76;99899.34;5055785;28;1793;-55
2022/08/22 02:40:15;;;;;;;;;;;;;;;16.29;56.95;99897.44;5051106;28;997;-55
2022/08/22 02:43:07;;;;;;;;;;;;;;;16.24;56.95;99895.56;5044214;28;974;-55
2022/08/22 02:45:37;;;;;;;;;;;;;;;16.19;57.19;99895.63;5068596;28;2462;-55
2022/08/22 02:48:05;;;;;;;;;;;;;;;16.18;56.98;99896.75;5052007;28;1218;-55
2022/08/22 02:50:33;;;;;;;;;;;;;;;16.19;56.91;99895.63;5044867;28;1001;-54
2022/08/22 02:53:14;;;;;;;;;;;;;;;16.20;56.78;99902.72;5063662;28;993;-54
2022/08/22 02:55:42;;;;;;;;;;;;;;;16.11;56.93;99899.81;5061446;28;1161;-57
2022/08/22 02:58:37;;;;;;;;;;;;;;;16.29;57.13;99898.25;5065256;28;1164;-55
2022/08/22 03:01:02;;;;;;;;;;;;;;;17.34;57.97;99904.78;5050840;28;1123;-56
2022/08/22 03:03:30;;;;;;;;;;;;;;;16.84;58.61;99907.97;5061491;28;1270;-56
2022/08/22 03:06:06;;;;;;;;;;;;;;;16.62;58.49;99912.13;5073098;28;1995;-57
2022/08/22 03:08:33;;;;;;;;;;;;;;;16.56;58.05;99916.84;5068338;28;1155;-58
2022/08/22 03:11:07;;;;;;;;;;;;;;;16.54;57.54;99910.03;5055778;28;778;-56
2022/08/22 03:13:32;;;;;;;;;;;;;;;16.47;57.28;99915.06;5062188;28;990;-56
2022/08/22 03:15:59;;;;;;;;;;;;;;;16.38;57.47;99923.94;5070077;28;2439;-51
2022/08/22 03:18:28;;;;;;;;;;;;;;;16.38;57.49;99918.44;5057072;28;1010;-55
2022/08/22 03:21:14;;;;;;;;;;;;;;;16.32;57.35;99916.06;5053069;28;1032;-55
2022/08/22 03:23:41;;;;;;;;;;;;;;;16.32;57.21;99919.59;5066003;28;1048;-55
2022/08/22 03:26:18;;;;;;;;;;;;;;;16.35;56.83;99924.50;5064778;28;1918;-55
2022/08/22 03:28:45;;;;;;;;;;;;;;;16.28;57.10;99926.78;5053282;28;1198;-55
2022/08/22 03:31:15;;;;;;;;;;;;;;;16.27;57.01;99933.41;5053780;28;1012;-59
2022/08/22 03:33:41;;;;;;;;;;;;;;;16.29;56.94;99944.88;5054528;28;1110;-55
2022/08/22 03:36:15;;;;;;;;;;;;;;;16.25;57.07;99941.09;5043353;28;1503;-56
2022/08/22 03:39:00;;;;;;;;;;;;;;;16.19;57.17;99947.75;5061698;28;966;-57
2022/08/22 03:41:41;;;;;;;;;;;;;;;16.28;57.62;99951.47;5073919;28;1533;-57
2022/08/22 03:44:12;;;;;;;;;;;;;;;17.60;58.06;99938.16;5057637;28;1056;-55
2022/08/22 03:46:41;;;;;;;;;;;;;;;16.86;58.87;99950.50;5063048;28;2441;-55
2022/08/22 03:49:25;;;;;;;;;;;;;;;16.69;58.67;99942.75;5062258;28;1329;-55
2022/08/22 03:52:13;;;;;;;;;;;;;;;16.61;58.07;99948.91;5060766;28;1242;-57
2022/08/22 03:54:38;;;;;;;;;;;;;;;16.56;57.56;99940.72;5043662;28;1107;-54
2022/08/22 03:57:07;;;;;;;;;;;;;;;16.52;57.62;99936.94;5067100;28;1222;-53
2022/08/22 03:59:51;;;;;;;;;;;;;;;16.50;57.45;99942.72;5077682;28;1024;-54
2022/08/22 04:02:26;;;;;;;;;;;;;;;16.43;57.27;99937.56;5072536;28;1198;-48
2022/08/22 04:05:06;;;;;;;;;;;;;;;16.42;57.25;99951.59;5075747;28;1959;-49
2022/08/22 04:07:44;;;;;;;;;;;;;;;16.43;57.48;99945.81;5076712;28;1151;-54
2022/08/22 04:10:32;;;;;;;;;;;;;;;16.43;57.09;99950.50;5065048;28;1005;-49
2022/08/22 04:13:24;;;;;;;;;;;;;;;16.39;57.16;99958.47;5051459;28;1017;-54
2022/08/22 04:15:52;;;;;;;;;;;;;;;16.37;57.19;99960.72;5040932;28;2335;-50
2022/08/22 04:18:27;;;;;;;;;;;;;;;16.32;57.33;99957.19;5066902;28;993;-51
2022/08/22 04:20:52;;;;;;;;;;;;;;;16.30;57.06;99960.25;5072189;28;1029;-51
2022/08/22 04:23:24;;;;;;;;;;;;;;;16.30;57.18;99960.25;5068690;28;1041;-51
2022/08/22 04:25:55;;;;;;;;;;;;;;;16.30;57.05;99960.25;5066564;28;1977;-47
2022/08/22 04:28:23;;;;;;;;;;;;;;;16.29;56.86;99957.78;5053413;28;1142;-47
2022/08/22 04:30:54;;;;;;;;;;;;;;;16.24;57.14;99961.38;5075187;28;1064;-51
2022/08/22 04:33:21;;;;;;;;;;;;;;;16.24;56.81;99962.22;5050608;28;1082;-50
2022/08/22 04:36:11;;;;;;;;;;;;;;;16.24;56.99;99961.38;5077065;28;970;-51
2022/08/22 04:38:41;;;;;;;;;;;;;;;16.18;57.04;99959.81;5054326;28;1510;-51
2022/08/22 04:41:11;;;;;;;;;;;;;;;16.22;56.70;99969.09;5043950;28;942;-49
2022/08/22 04:43:36;;;;;;;;;;;;;;;16.19;56.90;99975.19;5052750;28;1112;-52
2022/08/22 04:46:06;;;;;;;;;;;;;;;16.18;56.72;99968.84;5062730;28;1906;-51
2022/08/22 04:48:47;;;;;;;;;;;;;;;17.08;58.00;99960.94;5052949;28;1048;-52
2022/08/22 04:51:18;;;;;;;;;;;;;;;17.14;58.35;99966.34;5051254;28;1025;-53
2022/08/22 04:53:44;;;;;;;;;;;;;;;16.76;58.86;99978.91;5043266;28;1088;-52
2022/08/22 04:56:21;;;;;;;;;;;;;;;16.66;58.22;99973.53;5072366;28;1099;-55
2022/08/22 04:58:47;;;;;;;;;;;;;;;16.61;58.09;99987.31;5068349;28;866;-54
2022/08/22 05:01:24;;;;;;;;;;;;;;;16.54;57.72;99986.88;5056504;28;1097;-54
2022/08/22 05:04:02;;;;;;;;;;;;;;;16.52;57.48;99978.94;5069287;28;1203;-55
2022/08/22 05:06:28;;;;;;;;;;;;;;;16.46;57.23;99979.28;5057602;28;1910;-53
2022/08/22 05:08:54;;;;;;;;;;;;;;;16.43;57.46;99986.16;5076465;28;1078;-54
2022/08/22 05:11:21;;;;;;;;;;;;;;;16.42;57.25;99996.34;5069503;28;2692;-52
2022/08/22 05:13:48;;;;;;;;;;;;;;;16.39;57.41;99994.16;5052604;28;1097;-56
2022/08/22 05:16:19;;;;;;;;;;;;;;;16.38;57.31;99998.03;5072206;28;1190;-48
2022/08/22 05:18:48;;;;;;;;;;;;;;;16.37;57.33;99993.63;5054827;28;1105;-56
2022/08/22 05:21:14;;;;;;;;;;;;;;;16.31;57.09;99996.72;5054339;28;1144;-50
2022/08/22 05:23:50;;;;;;;;;;;;;;;16.30;57.38;99993.16;5067732;28;1076;-48
2022/08/22 05:26:16;;;;;;;;;;;;;;;16.35;57.04;100006.00;5058072;28;1977;-48
2022/08/22 05:28:45;;;;;;;;;;;;;;;16.32;57.51;100001.91;5075953;28;1116;-50
2022/08/22 05:31:12;;;;;;;;;;;;;;;16.25;57.32;100001.44;5076925;28;1005;-56
2022/08/22 05:33:38;;;;;;;;;;;;;;;16.27;57.58;100001.16;5072451;28;1084;-55
2022/08/22 05:36:05;;;;;;;;;;;;;;;16.27;57.49;100003.88;5067700;28;1025;-57
2022/08/22 05:38:31;;;;;;;;;;;;;;;16.28;57.21;100000.84;5053604;28;1061;-53
2022/08/22 05:41:20;;;;;;;;;;;;;;;16.29;57.48;100012.66;5051135;28;1006;-53
2022/08/22 05:43:46;;;;;;;;;;;;;;;16.24;57.49;100010.78;5051531;28;1282;-57
2022/08/22 05:46:34;;;;;;;;;;;;;;;17.54;56.23;100016.31;5069022;28;1906;-53
2022/08/22 05:49:01;;;;;;;;;;;;;;;16.89;56.05;100020.50;5063565;28;1268;-53
2022/08/22 05:51:33;;;;;;;;;;;;;;;16.55;54.47;100022.25;5074384;28;1072;-57
2022/08/22 05:54:05;;;;;;;;;;;;;;;16.49;53.27;100022.59;5049966;28;1076;-56
2022/08/22 05:56:31;;;;;;;;;;;;;;;16.48;52.13;100018.22;5071899;28;1135;-57
2022/08/22 05:58:58;;;;;;;;;;;;;;;16.54;51.26;100025.28;5060974;28;946;-57
2022/08/22 06:01:45;;;;;;;;;;;;;;;16.42;50.87;100023.78;5041104;28;1180;-53
2022/08/22 06:04:11;;;;;;;;;;;;;;;16.40;50.51;100025.97;5051402;28;985;-56
2022/08/22 06:06:38;;;;;;;;;;;;;;;16.36;50.45;100024.91;5069376;28;1996;-57
2022/08/22 06:09:17;;;;;;;;;;;;;;;16.35;50.03;100026.00;5070482;28;1083;-55
2022/08/22 06:12:03;;;;;;;;;;;;;;;16.33;50.10;100020.00;5065977;28;1033;-56
2022/08/22 06:14:28;;;;;;;;;;;;;;;16.31;50.00;100016.72;5061974;28;1092;-57
2022/08/22 06:16:59;;;;;;;;;;;;;;;16.33;49.66;100022.75;5074499;28;1214;-55
2022/08/22 06:19:24;;;;;;;;;;;;;;;16.37;49.21;100028.50;5065191;28;1138;-58
2022/08/22 06:21:50;;;;;;;;;;;;;;;16.43;49.05;100025.38;5055627;28;1024;-59
2022/08/22 06:24:19;;;;;;;;;;;;;;;16.49;48.87;100026.16;5054194;28;1125;-58
2022/08/22 06:26:45;;;;;;;;;;;;;;;16.48;49.35;100023.69;5074942;28;1898;-57
2022/08/22 06:29:13;;;;;;;;;;;;;;;16.42;49.38;100034.75;5075188;28;1155;-56
2022/08/22 06:31:42;;;;;;;;;;;;;;;16.45;49.18;100029.78;5057788;28;1013;-55
2022/08/22 06:34:21;;;;;;;;;;;;;;;16.47;48.83;100036.59;5056532;28;973;-56
2022/08/22 06:36:47;;;;;;;;;;;;;;;16.62;49.78;100041.13;5075219;28;1025;-53
2022/08/22 06:39:17;;;;;;;;;;;;;;;16.56;49.01;100039.53;5057209;28;1002;-52
2022/08/22 06:41:47;;;;;;;;;;;;;;;16.56;48.74;100034.88;5056353;28;1042;-49
2022/08/22 06:44:14;;;;;;;;;;;;;;;16.53;48.79;100034.63;5049083;28;997;-50
2022/08/22 06:46:40;;;;;;;;;;;;;;;16.63;48.34;100034.50;5049914;28;1985;-51
2022/08/22 06:49:06;;;;;;;;;;;;;;;16.68;48.66;100028.16;5056802;28;1060;-56
2022/08/22 06:51:31;;;;;;;;;;;;;;;16.61;48.75;100036.72;5043585;28;1160;-57
2022/08/22 06:53:59;;;;;;;;;;;;;;;16.64;48.75;100047.13;5053415;28;1103;-53
2022/08/22 06:56:28;;;;;;;;;;;;;;;16.63;48.76;100042.72;5070672;28;1028;-51
2022/08/22 06:58:56;;;;;;;;;;;;;;;16.68;48.33;100048.19;5064822;28;1159;-53
2022/08/22 07:01:26;;;;;;;;;;;;;;;16.63;48.55;100040.00;5072216;28;1008;-54
2022/08/22 07:03:52;;;;;;;;;;;;;;;16.69;48.18;100043.50;5054068;28;1135;-57
2022/08/22 07:06:38;;;;;;;;;;;;;;;16.72;47.76;100037.44;5072085;28;1910;-56
2022/08/22 07:09:04;;;;;;;;;;;;;;;16.74;47.72;100041.50;5067587;28;1187;-56
2022/08/22 07:11:38;;;;;;;;;;;;;;;16.67;47.96;100041.03;5066670;28;879;-53
2022/08/22 07:14:12;;;;;;;;;;;;;;;16.65;47.84;100034.19;5061943;28;1104;-57
2022/08/22 07:16:38;;;;;;;;;;;;;;;16.67;48.03;100041.03;5040750;28;1113;-54
2022/08/22 07:19:04;;;;;;;;;;;;;;;16.69;48.05;100038.00;5067187;28;1059;-54
2022/08/22 07:21:31;;;;;;;;;;;;;;;16.71;47.67;100036.59;5074501;28;918;-55
2022/08/22 07:23:57;;;;;;;;;;;;;;;16.67;48.04;100029.25;5054319;28;1522;-53
2022/08/22 07:26:28;;;;;;;;;;;;;;;16.75;47.78;100025.88;5074393;28;1913;-58
2022/08/22 07:28:55;;;;;;;;;;;;;;;16.72;48.10;100027.28;5074897;28;1040;-56
2022/08/22 07:31:24;;;;;;;;;;;;;;;17.30;50.72;100013.66;5056198;28;1100;-56
2022/08/22 07:33:53;;;;;;;;;;;;;;;17.85;54.20;100010.31;5074433;28;1009;-54
2022/08/22 07:36:23;;;;;;;;;;;;;;;15.38;59.59;100013.94;5069266;28;1097;-57
2022/08/22 07:39:09;;;;;;;;;;;;;;;16.63;53.14;100006.25;5043704;28;1014;-59
2022/08/22 07:41:53;;;;;;;;;;;;;;;16.86;51.57;100012.84;5056621;28;1478;-57
2022/08/22 07:44:20;;;;;;;;;;;;;;;16.94;50.36;100012.19;5042922;28;1314;-51
2022/08/22 07:46:46;;;;;;;;;;;;;;;16.91;49.65;100008.13;5060462;28;1910;-50
2022/08/22 07:49:30;;;;;;;;;;;;;;;16.86;49.77;100010.09;5059186;28;1290;-48
2022/08/22 07:51:57;;;;;;;;;;;;;;;16.91;49.55;100012.78;5057553;28;1128;-53
2022/08/22 07:54:49;;;;;;;;;;;;;;;17.17;51.51;100015.22;5040557;28;1290;-54
2022/08/22 07:57:30;;;;;;;;;;;;;;;17.32;51.92;100006.75;5057297;28;1280;-55
2022/08/22 07:59:57;;;;;;;;;;;;;;;17.19;50.65;99999.22;5043188;28;1171;-55
2022/08/22 08:02:22;;;;;;;;;;;;;;;17.20;50.21;99998.13;5050332;28;1056;-47
2022/08/22 08:04:49;;;;;;;;;;;;;;;17.10;49.86;99990.84;5052402;28;985;-54
2022/08/22 08:07:14;;;;;;;;;;;;;;;17.17;49.16;99994.03;5049480;28;1906;-55
2022/08/22 08:09:41;;;;;;;;;;;;;;;17.15;48.70;99996.25;5068136;28;985;-54
2022/08/22 08:12:07;;;;;;;;;;;;;;;17.02;48.75;99997.81;5041962;28;982;-47
2022/08/22 08:14:34;;;;;;;;;;;;;;;17.13;48.65;99997.69;5054537;28;1029;-55
2022/08/22 08:17:04;;;;;;;;;;;;;;;17.12;48.37;99998.78;5067467;28;1010;-52
2022/08/22 08:19:32;;;;;;;;;;;;;;;17.09;48.26;99994.69;5070745;28;1060;-53
2022/08/22 08:21:57;;;;;;;;;;;;;;;17.16;47.91;99991.59;5074494;28;1040;-55
2022/08/22 08:24:24;;;;;;;;;;;;;;;17.07;47.88;99995.00;5066395;28;1144;-48
2022/08/22 08:29:39;;;;;;;;;;;;;;;17.02;47.91;99995.06;5049326;28;1100;-52
2022/08/22 08:32:08;;;;;;;;;;;;;;;17.06;47.99;100000.78;5072004;28;1060;-54
2022/08/22 08:34:33;;;;;;;;;;;;;;;17.04;48.17;100003.00;5057122;28;1152;-52
2022/08/22 08:37:00;;;;;;;;;;;;;;;17.10;48.17;100001.84;5046831;28;1069;-50
2022/08/22 08:39:25;;;;;;;;;;;;;;;17.16;47.73;99999.84;5051254;28;1060;-52
2022/08/22 08:41:57;;;;;;;;;;;;;;;17.16;47.72;99999.84;5070293;28;1064;-50
2022/08/22 08:44:29;;;;;;;;;;;;;;;17.18;47.65;100000.34;5048432;28;1163;-47
2022/08/22 08:47:06;;;;;;;;;;;;;;;17.16;47.74;99991.59;5071506;28;1906;-50
2022/08/22 08:49:35;;;;;;;;;;;;;;;17.34;48.93;99990.75;5068142;28;1104;-55
2022/08/22 08:52:03;;;;;;;;;;;;;;;17.31;50.14;99994.13;5064642;28;1108;-49
2022/08/22 08:54:34;;;;;;;;;;;;;;;17.24;49.61;99985.44;5066998;28;2891;-50
2022/08/22 08:57:09;;;;;;;;;;;;;;;17.32;48.79;99995.75;5052865;28;2064;-47
2022/08/22 08:59:55;;;;;;;;;;;;;;;17.24;48.71;99988.19;5055141;28;1715;-51
2022/08/22 09:02:26;;;;;;;;;;;;;;;17.27;48.39;99991.13;5064000;28;1817;-51
2022/08/22 09:05:01;;;;;;;;;;;;;;;17.32;48.12;99995.75;5063725;28;1809;-46
2022/08/22 09:07:36;;;;;;;;;;;;;;;17.28;48.25;99994.72;5062539;28;1627;-47
2022/08/22 09:10:20;;;;;;;;;;;;;;;17.33;47.90;99997.38;5063039;28;1815;-50
2022/08/22 09:13:05;;;;;;;;;;;;;;;17.28;48.07;99994.72;5068269;28;935;-48
2022/08/22 09:15:44;;;;;;;;;;;;;;;17.29;48.12;99988.09;5064083;28;1013;-56
2022/08/22 09:18:22;;;;;;;;;;;;;;;14.43;55.56;99985.59;5040794;28;1053;-51
2022/08/22 09:21:01;;;;;;;;;;;;;;;16.24;49.72;99975.94;5051923;28;1144;-49
2022/08/22 09:23:46;;;;;;;;;;;;;;;16.72;48.69;99994.31;5072609;28;1119;-48
2022/08/22 09:26:30;;;;;;;;;;;;;;;16.82;48.55;99995.31;5067094;28;1977;-52
2022/08/22 09:29:14;;;;;;;;;;;;;;;16.90;48.57;100000.16;5065304;28;1072;-52
2022/08/22 09:31:45;;;;;;;;;;;;;;;16.99;48.16;99981.91;5065551;28;1029;-53
2022/08/22 09:34:12;;;;;;;;;;;;;;;17.04;48.08;99984.59;5059330;28;1028;-53
2022/08/22 09:36:57;;;;;;;;;;;;;;;17.04;48.14;99981.88;5063288;28;857;-53
2022/08/22 09:39:43;;;;;;;;;;;;;;;17.02;47.84;99981.31;5061740;28;1828;-55
2022/08/22 09:42:14;;;;;;;;;;;;;;;17.05;47.89;99969.75;5068728;28;1227;-54
2022/08/22 09:45:15;;;;;;;;;;;;;;;17.06;48.04;99981.56;5075599;28;1167;-53
2022/08/22 09:47:44;;;;;;;;;;;;;;;17.13;47.63;99968.28;5069751;28;1492;-51
2022/08/22 09:50:19;;;;;;;;;;;;;;;17.18;47.56;99972.88;5062277;28;1009;-48
2022/08/22 09:52:55;;;;;;;;;;;;;;;17.18;47.85;99961.88;5052832;28;1179;-48
2022/08/22 09:55:30;;;;;;;;;;;;;;;17.18;47.75;99964.63;5043251;28;1158;-51
2022/08/22 09:58:04;;;;;;;;;;;;;;;17.21;47.91;99966.81;5057747;28;1225;-52
2022/08/22 10:00:43;;;;;;;;;;;;;;;17.10;48.40;99955.94;5042300;28;1212;-56
2022/08/22 10:03:17;;;;;;;;;;;;;;;17.25;47.94;99962.31;5042396;28;1210;-51
2022/08/22 10:05:45;;;;;;;;;;;;;;;17.22;48.36;99960.16;5058844;28;1910;-49
2022/08/22 10:08:30;;;;;;;;;;;;;;;17.25;48.08;99962.31;5059074;28;1072;-50
2022/08/22 10:11:17;;;;;;;;;;;;;;;17.28;48.09;99968.03;5043247;28;1837;-55
2022/08/22 10:13:49;;;;;;;;;;;;;;;17.31;48.27;99961.13;5060252;28;1203;-53
2022/08/22 10:16:35;;;;;;;;;;;;;;;17.31;48.13;99966.63;5056596;28;1053;-53
2022/08/22 10:19:15;;;;;;;;;;;;;;;17.37;48.08;99970.94;5062410;28;972;-47
2022/08/22 10:21:43;;;;;;;;;;;;;;;17.34;48.33;99966.03;5058003;28;1258;-53
2022/08/22 10:24:22;;;;;;;;;;;;;;;17.40;47.92;99959.38;5055629;28;1187;-53
2022/08/22 10:26:54;;;;;;;;;;;;;;;14.89;55.60;99960.81;5041517;28;1910;-54
2022/08/22 10:29:38;;;;;;;;;;;;;;;16.61;50.46;99959.88;5056518;28;1097;-48
2022/08/22 10:32:12;;;;;;;;;;;;;;;16.96;49.13;99965.22;5069191;28;1191;-47
2022/08/22 10:34:41;;;;;;;;;;;;;;;16.99;49.15;99965.44;5048395;28;1021;-50
2022/08/22 10:37:09;;;;;;;;;;;;;;;17.16;49.21;99973.16;5043914;28;1084;-52
2022/08/22 10:39:41;;;;;;;;;;;;;;;17.09;49.17;99970.78;5060292;28;2338;-50
2022/08/22 10:42:09;;;;;;;;;;;;;;;17.13;49.06;99959.22;5041146;28;1065;-49
2022/08/22 10:44:54;;;;;;;;;;;;;;;17.21;48.87;99958.56;5073076;28;1112;-47
2022/08/22 10:47:25;;;;;;;;;;;;;;;17.19;48.77;99964.31;5071418;28;1979;-54
2022/08/22 10:49:51;;;;;;;;;;;;;;;17.23;48.58;99953.56;5070342;28;1243;-48
2022/08/22 10:52:19;;;;;;;;;;;;;;;17.27;49.44;99960.09;5038345;28;990;-54
2022/08/22 10:55:11;;;;;;;;;;;;;;;17.35;50.19;99956.69;5054425;28;1207;-54
2022/08/22 10:57:42;;;;;;;;;;;;;;;14.94;57.26;99963.53;5068197;28;1073;-51
2022/08/22 11:00:27;;;;;;;;;;;;;;;16.30;52.81;99948.44;5060232;28;1211;-46
2022/08/22 11:03:08;;;;;;;;;;;;;;;16.87;50.56;99952.13;5072545;28;1250;-52
2022/08/22 11:05:34;;;;;;;;;;;;;;;17.02;49.85;99953.06;5074867;28;1910;-48
2022/08/22 11:08:18;;;;;;;;;;;;;;;17.07;49.18;99956.53;5043376;28;1396;-47
2022/08/22 11:10:53;;;;;;;;;;;;;;;17.10;49.23;99947.69;5062814;28;1944;-55
2022/08/22 11:13:18;;;;;;;;;;;;;;;17.14;49.30;99949.84;5070867;28;1115;-46
2022/08/22 11:15:44;;;;;;;;;;;;;;;17.23;48.90;99943.38;5074446;28;1004;-55
2022/08/22 11:18:15;;;;;;;;;;;;;;;17.20;48.59;99943.97;5074111;28;1127;-52
2022/08/22 11:20:46;;;;;;;;;;;;;;;17.18;48.58;99950.88;5074421;28;1174;-54
2022/08/22 11:23:12;;;;;;;;;;;;;;;17.21;48.55;99937.38;5070425;28;1206;-56
2022/08/22 11:25:40;;;;;;;;;;;;;;;17.17;48.65;99938.28;5066431;28;2028;-55
2022/08/22 11:28:08;;;;;;;;;;;;;;;17.17;48.41;99943.78;5074485;28;1155;-51
2022/08/22 11:30:36;;;;;;;;;;;;;;;17.31;48.09;99939.16;5065704;28;1124;-57
2022/08/22 11:33:16;;;;;;;;;;;;;;;17.34;48.11;99948.75;5051216;28;979;-57
2022/08/22 11:35:43;;;;;;;;;;;;;;;17.29;48.14;99946.88;5058182;28;1080;-56
2022/08/22 11:38:27;;;;;;;;;;;;;;;17.32;48.15;99953.69;5057718;28;1021;-57
2022/08/22 11:41:28;;;;;;;;;;;;;;;17.26;48.22;99948.31;5065694;28;2002;-53
2022/08/22 11:44:01;;;;;;;;;;;;;;;17.32;48.32;99935.31;4979655;28;1222;-56
2022/08/22 11:46:27;;;;;;;;;;;;;;;17.30;48.27;99942.22;5042038;28;1898;-52
2022/08/22 11:48:58;;;;;;;;;;;;;;;17.36;48.22;99936.34;5073157;28;949;-53
2022/08/22 11:51:42;;;;;;;;;;;;;;;17.34;48.07;99938.56;5063407;28;1400;-49
2022/08/22 11:54:09;;;;;;;;;;;;;;;14.50;55.51;99936.88;5077607;28;989;-51
2022/08/22 11:56:48;;;;;;;;;;;;;;;16.40;50.03;99938.16;5042078;28;1133;-49
2022/08/22 11:59:20;;;;;;;;;;;;;;;16.77;48.66;99931.13;5059828;28;1059;-55
2022/08/22 12:01:45;;;;;;;;;;;;;;;17.02;49.97;99934.63;5067951;28;1186;-57
2022/08/22 12:04:20;;;;;;;;;;;;;;;15.77;54.81;99941.00;5077971;28;1036;-55
2022/08/22 12:06:47;;;;;;;;;;;;;;;15.90;55.56;99937.63;5075014;28;1972;-57
2022/08/22 12:09:42;;;;;;;;;;;;;;;16.79;52.22;99946.47;5052077;28;1072;-57
2022/08/22 12:12:07;;;;;;;;;;;;;;;17.02;50.41;99937.38;5051552;28;1516;-57
2022/08/22 12:14:42;;;;;;;;;;;;;;;17.06;49.94;99932.94;5072313;28;1061;-57
2022/08/22 12:17:13;;;;;;;;;;;;;;;17.11;49.37;99932.06;5058525;28;938;-57
2022/08/22 12:19:44;;;;;;;;;;;;;;;17.15;49.18;99933.06;5063572;28;1062;-59
2022/08/22 12:22:29;;;;;;;;;;;;;;;17.16;48.85;99925.66;5061428;28;1159;-55
2022/08/22 12:25:00;;;;;;;;;;;;;;;17.18;48.52;99918.75;5061535;28;1490;-51
2022/08/22 12:27:29;;;;;;;;;;;;;;;17.22;48.32;99917.03;5043161;28;1906;-57
2022/08/22 12:29:57;;;;;;;;;;;;;;;17.19;48.26;99920.38;5058926;28;1154;-57
2022/08/22 12:32:32;;;;;;;;;;;;;;;17.20;48.20;99922.00;5061416;28;1321;-53
2022/08/22 12:34:57;;;;;;;;;;;;;;;17.24;48.08;99922.25;5059281;28;1022;-58
2022/08/22 12:37:28;;;;;;;;;;;;;;;17.30;47.93;99921.03;5063580;28;1203;-57
2022/08/22 12:40:12;;;;;;;;;;;;;;;17.17;48.00;99921.81;5069990;28;1853;-51
2022/08/22 12:42:43;;;;;;;;;;;;;;;15.02;53.70;99921.84;5071151;28;1033;-52
2022/08/22 12:45:27;;;;;;;;;;;;;;;16.47;49.31;99917.81;5048482;28;1910;-56
2022/08/22 12:47:55;;;;;;;;;;;;;;;16.79;48.58;99922.59;5063381;28;919;-54
2022/08/22 12:50:36;;;;;;;;;;;;;;;16.92;47.98;99921.06;5069844;28;899;-57
2022/08/22 12:53:14;;;;;;;;;;;;;;;16.95;47.78;99923.22;5076710;28;957;-57
2022/08/22 12:55:48;;;;;;;;;;;;;;;17.02;47.89;99914.59;5076514;28;1228;-59
2022/08/22 12:58:14;;;;;;;;;;;;;;;16.98;47.89;99919.84;5073887;28;1092;-56
2022/08/22 13:00:43;;;;;;;;;;;;;;;17.08;47.91;99914.22;5071434;28;1024;-56
2022/08/22 13:03:28;;;;;;;;;;;;;;;17.03;47.86;99914.31;5044133;28;961;-58
2022/08/22 13:05:53;;;;;;;;;;;;;;;17.19;47.63;99903.06;5055663;28;1902;-56
2022/08/22 13:08:23;;;;;;;;;;;;;;;17.16;47.66;99906.44;5066541;28;998;-52
2022/08/22 13:10:50;;;;;;;;;;;;;;;17.12;47.81;99902.66;5050438;28;1976;-50
2022/08/22 13:13:25;;;;;;;;;;;;;;;17.20;47.47;99905.53;5054679;28;1065;-54
2022/08/22 13:15:55;;;;;;;;;;;;;;;17.13;47.72;99907.03;5072665;28;966;-53
2022/08/22 13:18:24;;;;;;;;;;;;;;;17.25;47.36;99901.88;5075771;28;1084;-52
2022/08/22 13:20:50;;;;;;;;;;;;;;;17.23;47.40;99904.13;5058580;28;1072;-53
2022/08/22 13:23:29;;;;;;;;;;;;;;;17.15;47.88;99905.59;5076071;28;1064;-53
2022/08/22 13:25:59;;;;;;;;;;;;;;;17.20;47.69;99904.72;5071462;28;1964;-56
2022/08/22 13:28:25;;;;;;;;;;;;;;;17.18;47.60;99909.69;5060982;28;1532;-57
2022/08/22 13:30:51;;;;;;;;;;;;;;;17.33;49.09;99909.44;5043302;28;1009;-56
2022/08/22 13:33:21;;;;;;;;;;;;;;;17.34;48.30;99899.28;5048117;28;1168;-54